Time;durP1;ratioP1;P1;durP2;ratioP2;P2;SDS_P1;SDS_P2;PMS_P1;PMS_P2;Temp;Humidity;BMP_temperature;BMP_pressure;BME280_temperature;BME280_humidity;BME280_pressure;Samples;Min_cycle;Max_cycle;Signal;HPM_P1;HPM_P2
2021/12/02 00:01:10;;;;;;;;;;;11.30;67.50;;;;;;5073148;28;19912;-68
2021/12/02 00:03:36;;;;;;;;;;;11.40;67.50;;;;;;5073136;28;19905;-68
2021/12/02 00:06:03;;;;;;;;;;;11.30;67.30;;;;;;5072945;28;19916;-68
2021/12/02 00:08:29;;;;;;;;;;;11.30;67.20;;;;;;5072991;28;19911;-68
2021/12/02 00:10:54;;;;;;;;;;;11.30;67.10;;;;;;5073030;28;19954;-68
2021/12/02 00:13:24;;;;;;;;;;;11.30;67.10;;;;;;5072899;28;19940;-68
2021/12/02 00:23:35;;;;;;;;;;;11.30;67.20;;;;;;5077409;28;20331;-68
2021/12/02 00:26:02;;;;;;;;;;;11.30;67.20;;;;;;5077080;28;19905;-68
2021/12/02 00:28:29;;;;;;;;;;;11.30;67.20;;;;;;5059002;28;19908;-68
2021/12/02 00:30:56;;;;;;;;;;;11.30;67.10;;;;;;5076987;28;19948;-68
2021/12/02 00:33:25;;;;;;;;;;;11.40;67.20;;;;;;5076827;28;19958;-68
2021/12/02 00:35:51;;;;;;;;;;;11.40;67.20;;;;;;5076937;28;19909;-68
2021/12/02 00:38:18;;;;;;;;;;;11.40;67.10;;;;;;5076779;28;19908;-68
2021/12/02 00:40:44;;;;;;;;;;;11.40;67.00;;;;;;5076895;28;19908;-68
2021/12/02 00:43:10;;;;;;;;;;;11.40;67.00;;;;;;5058781;28;19944;-68
2021/12/02 00:45:38;;;;;;;;;;;11.40;66.90;;;;;;5076645;28;19971;-68
2021/12/02 00:48:04;;;;;;;;;;;11.40;66.90;;;;;;5076631;28;20397;-68
2021/12/02 00:50:30;;;;;;;;;;;11.40;66.80;;;;;;5076602;28;19909;-68
2021/12/02 00:52:56;;;;;;;;;;;11.40;66.80;;;;;;5076570;28;19953;-68
2021/12/02 00:55:24;;;;;;;;;;;11.40;66.80;;;;;;5076465;28;19913;-68
2021/12/02 00:57:49;;;;;;;;;;;11.40;66.80;;;;;;5076491;28;19915;-68
2021/12/02 01:00:15;;;;;;;;;;;11.40;66.70;;;;;;5076354;28;19909;-68
2021/12/02 01:02:42;;;;;;;;;;;11.40;66.70;;;;;;5076363;28;19914;-68
2021/12/02 01:05:08;;;;;;;;;;;11.40;66.80;;;;;;5076152;28;20399;-68
2021/12/02 01:07:33;;;;;;;;;;;11.40;66.70;;;;;;5076255;28;19995;-68
2021/12/02 01:09:59;;;;;;;;;;;11.40;66.70;;;;;;5076255;28;19999;-68
2021/12/02 01:12:25;;;;;;;;;;;11.40;66.70;;;;;;5075920;28;19908;-68
2021/12/02 01:14:50;;;;;;;;;;;11.40;66.70;;;;;;5075869;28;19925;-68
2021/12/02 01:17:16;;;;;;;;;;;11.30;66.60;;;;;;5076131;28;19969;-68
2021/12/02 01:19:42;;;;;;;;;;;11.30;66.60;;;;;;5076059;28;19905;-68
2021/12/02 01:22:08;;;;;;;;;;;11.30;66.60;;;;;;5076016;28;19908;-68
2021/12/02 01:24:34;;;;;;;;;;;11.30;66.60;;;;;;5075981;28;19939;-68
2021/12/02 01:27:02;;;;;;;;;;;11.30;66.60;;;;;;5075953;28;20457;-68
2021/12/02 01:29:27;;;;;;;;;;;11.30;66.50;;;;;;5075911;28;19926;-68
2021/12/02 01:31:57;;;;;;;;;;;11.30;66.60;;;;;;5075018;28;19999;-68
2021/12/02 01:34:24;;;;;;;;;;;11.30;66.60;;;;;;5075687;28;19921;-68
2021/12/02 01:36:50;;;;;;;;;;;11.30;66.40;;;;;;5057846;28;19908;-68
2021/12/02 01:39:16;;;;;;;;;;;11.30;66.40;;;;;;5075580;28;19930;-68
2021/12/02 01:41:47;;;;;;;;;;;11.40;66.50;;;;;;5075655;28;19909;-68
2021/12/02 01:44:13;;;;;;;;;;;11.30;66.30;;;;;;5075605;28;19909;-68
2021/12/02 01:46:39;;;;;;;;;;;11.30;66.30;;;;;;5075559;28;19908;-68
2021/12/02 01:49:05;;;;;;;;;;;11.30;66.30;;;;;;5075513;28;19992;-68
2021/12/02 01:51:36;;;;;;;;;;;11.30;66.20;;;;;;5075481;28;19965;-68
2021/12/02 01:54:04;;;;;;;;;;;11.30;66.20;;;;;;5075435;28;19919;-68
2021/12/02 01:56:31;;;;;;;;;;;11.30;66.20;;;;;;5075377;28;19909;-68
2021/12/02 01:59:00;;;;;;;;;;;11.30;65.80;;;;;;5075361;28;19915;-68
2021/12/02 02:01:26;;;;;;;;;;;11.30;65.80;;;;;;5075275;28;20003;-68
2021/12/02 02:03:53;;;;;;;;;;;11.30;65.70;;;;;;5074966;28;19909;-68
2021/12/02 02:06:29;;;;;;;;;;;11.30;65.50;;;;;;5075064;28;19908;-68
2021/12/02 02:08:56;;;;;;;;;;;11.30;65.40;;;;;;5075060;28;19931;-68
2021/12/02 02:11:26;;;;;;;;;;;11.40;65.40;;;;;;5074966;28;20324;-68
2021/12/02 02:13:52;;;;;;;;;;;11.40;64.80;;;;;;5056955;28;20377;-68
2021/12/02 02:16:18;;;;;;;;;;;11.40;64.80;;;;;;5074679;28;19927;-68
2021/12/02 02:18:43;;;;;;;;;;;11.40;64.50;;;;;;5074801;28;19916;-68
2021/12/02 02:21:12;;;;;;;;;;;11.40;64.30;;;;;;5074734;28;19955;-68
2021/12/02 02:23:42;;;;;;;;;;;11.40;64.40;;;;;;5056735;28;19962;-68
2021/12/02 02:26:09;;;;;;;;;;;11.40;64.10;;;;;;5074985;28;19908;-68
2021/12/02 02:28:36;;;;;;;;;;;11.40;63.80;;;;;;5074561;28;19916;-68
2021/12/02 02:31:03;;;;;;;;;;;11.40;64.20;;;;;;5074634;28;20004;-68
2021/12/02 02:33:39;;;;;;;;;;;11.40;64.00;;;;;;5074350;28;19908;-68
2021/12/02 02:36:06;;;;;;;;;;;11.40;64.10;;;;;;5074539;28;20318;-68
2021/12/02 02:38:32;;;;;;;;;;;11.40;63.80;;;;;;5056749;28;20259;-68
2021/12/02 02:41:00;;;;;;;;;;;11.30;63.50;;;;;;5056538;28;19940;-68
2021/12/02 02:43:27;;;;;;;;;;;11.30;63.20;;;;;;5073299;28;19909;-68
2021/12/02 02:45:52;;;;;;;;;;;11.30;63.10;;;;;;5074297;28;19924;-68
2021/12/02 02:48:18;;;;;;;;;;;11.30;63.30;;;;;;5074230;28;19915;-68
2021/12/02 02:50:44;;;;;;;;;;;11.20;63.10;;;;;;5056392;28;19908;-68
2021/12/02 02:53:17;;;;;;;;;;;11.20;63.90;;;;;;5074275;28;19912;-68
2021/12/02 02:55:48;;;;;;;;;;;11.20;63.20;;;;;;5074190;28;20366;-68
2021/12/02 02:58:23;;;;;;;;;;;11.20;63.10;;;;;;5074082;28;20003;-68
2021/12/02 03:01:02;;;;;;;;;;;11.20;63.20;;;;;;5074062;28;20002;-68
2021/12/02 03:09:07;;;;;;;;;;;11.20;62.90;;;;;;5056117;28;20324;-68
2021/12/02 03:11:45;;;;;;;;;;;11.20;63.00;;;;;;5073798;28;19938;-68
2021/12/02 03:14:17;;;;;;;;;;;11.20;63.00;;;;;;5073721;28;19913;-68
2021/12/02 03:16:46;;;;;;;;;;;11.20;62.90;;;;;;5052313;28;19920;-68
2021/12/02 03:19:13;;;;;;;;;;;11.20;62.80;;;;;;5052473;28;20000;-68
2021/12/02 03:21:39;;;;;;;;;;;11.20;62.80;;;;;;5053637;28;20003;-68
2021/12/02 03:24:05;;;;;;;;;;;11.20;62.60;;;;;;5053606;28;20326;-67
2021/12/02 03:26:32;;;;;;;;;;;11.20;62.70;;;;;;5053568;28;19912;-68
2021/12/02 03:28:57;;;;;;;;;;;11.20;62.60;;;;;;5053554;28;19909;-68
2021/12/02 03:31:23;;;;;;;;;;;11.20;62.40;;;;;;5053515;28;20008;-68
2021/12/02 03:33:49;;;;;;;;;;;11.20;62.50;;;;;;5053373;28;19920;-68
2021/12/02 03:36:16;;;;;;;;;;;11.20;62.40;;;;;;5053473;28;19913;-67
2021/12/02 03:38:42;;;;;;;;;;;11.10;62.20;;;;;;5053298;28;19932;-68
2021/12/02 03:41:07;;;;;;;;;;;11.20;61.90;;;;;;5053335;28;19908;-67
2021/12/02 03:43:37;;;;;;;;;;;11.20;62.00;;;;;;5053299;28;19908;-68
2021/12/02 03:46:04;;;;;;;;;;;11.10;61.60;;;;;;5053290;28;19909;-68
2021/12/02 03:48:30;;;;;;;;;;;11.20;61.90;;;;;;5053180;28;19915;-67
2021/12/02 03:50:57;;;;;;;;;;;11.20;62.00;;;;;;5053288;28;19909;-68
2021/12/02 03:53:22;;;;;;;;;;;11.20;62.00;;;;;;5052776;28;19909;-67
2021/12/02 03:55:48;;;;;;;;;;;11.30;62.00;;;;;;5053116;28;19920;-68
2021/12/02 03:58:14;;;;;;;;;;;11.30;62.00;;;;;;5053132;28;20003;-67
2021/12/02 04:00:39;;;;;;;;;;;11.30;61.90;;;;;;5052884;28;19917;-68
2021/12/02 04:03:05;;;;;;;;;;;11.40;62.00;;;;;;5052914;28;19959;-67
2021/12/02 04:05:31;;;;;;;;;;;11.40;61.70;;;;;;5053081;28;19919;-68
2021/12/02 04:07:56;;;;;;;;;;;11.40;61.50;;;;;;5052937;28;20029;-68
2021/12/02 04:10:23;;;;;;;;;;;11.40;61.40;;;;;;5052898;28;20025;-68
2021/12/02 04:13:27;;;;;;;;;;;11.40;61.30;;;;;;5052934;28;19908;-68
2021/12/02 04:15:42;;;;;;;;;;;11.40;61.40;;;;;;5060435;28;19925;-67
2021/12/02 04:18:09;;;;;;;;;;;11.40;61.30;;;;;;5071958;28;21324;-68
2021/12/02 04:20:37;;;;;;;;;;;11.40;61.50;;;;;;5073001;28;20004;-67
2021/12/02 04:23:03;;;;;;;;;;;11.40;61.70;;;;;;5072809;28;19912;-68
2021/12/02 04:25:28;;;;;;;;;;;11.50;61.90;;;;;;5072810;28;19904;-68
2021/12/02 04:27:54;;;;;;;;;;;11.50;61.90;;;;;;5072818;28;19909;-68
2021/12/02 04:30:23;;;;;;;;;;;11.50;61.80;;;;;;5072676;28;20328;-68
2021/12/02 04:32:50;;;;;;;;;;;11.50;61.60;;;;;;5072725;28;20311;-68
2021/12/02 04:35:16;;;;;;;;;;;11.50;61.50;;;;;;5072589;28;19913;-67
2021/12/02 04:37:44;;;;;;;;;;;11.60;61.60;;;;;;5072591;28;19908;-68
2021/12/02 04:40:11;;;;;;;;;;;11.50;61.20;;;;;;5072514;28;19908;-67
2021/12/02 04:42:37;;;;;;;;;;;11.50;61.30;;;;;;5072527;28;20277;-67
2021/12/02 04:45:03;;;;;;;;;;;11.60;61.50;;;;;;5072590;28;19908;-67
2021/12/02 04:47:29;;;;;;;;;;;11.60;61.50;;;;;;5054525;28;19908;-67
2021/12/02 04:49:54;;;;;;;;;;;11.60;61.40;;;;;;5072501;28;20282;-68
2021/12/02 04:52:20;;;;;;;;;;;11.60;61.40;;;;;;5072389;28;20000;-67
2021/12/02 04:54:46;;;;;;;;;;;11.60;61.50;;;;;;5072413;28;19913;-67
2021/12/02 04:57:11;;;;;;;;;;;11.60;61.50;;;;;;5072446;28;19908;-67
2021/12/02 04:59:37;;;;;;;;;;;11.60;61.60;;;;;;5072286;28;20317;-67
2021/12/02 05:02:03;;;;;;;;;;;11.50;61.40;;;;;;5072478;28;19954;-67
2021/12/02 05:04:28;;;;;;;;;;;11.60;61.40;;;;;;5072561;28;19920;-68
2021/12/02 05:06:54;;;;;;;;;;;11.50;61.30;;;;;;5075070;28;20009;-67
2021/12/02 05:09:20;;;;;;;;;;;11.50;61.10;;;;;;5076262;28;19913;-67
2021/12/02 05:11:45;;;;;;;;;;;11.50;61.40;;;;;;5076229;28;19916;-67
2021/12/02 05:14:11;;;;;;;;;;;11.50;61.50;;;;;;5075879;28;19916;-67
2021/12/02 05:16:37;;;;;;;;;;;11.50;61.60;;;;;;5075752;28;19943;-67
2021/12/02 05:19:03;;;;;;;;;;;11.50;61.80;;;;;;5076034;28;19919;-67
2021/12/02 05:21:29;;;;;;;;;;;11.50;61.90;;;;;;5075787;28;19908;-67
2021/12/02 05:23:55;;;;;;;;;;;11.50;61.90;;;;;;5075680;28;19915;-67
2021/12/02 05:26:21;;;;;;;;;;;11.50;62.00;;;;;;5075662;28;19915;-67
2021/12/02 05:28:46;;;;;;;;;;;11.50;62.00;;;;;;5075573;28;19909;-67
2021/12/02 05:31:12;;;;;;;;;;;11.50;61.90;;;;;;5075574;28;19915;-67
2021/12/02 05:33:38;;;;;;;;;;;11.50;61.90;;;;;;5075469;28;19991;-67
2021/12/02 05:36:03;;;;;;;;;;;11.50;61.60;;;;;;5057479;28;20362;-67
2021/12/02 05:38:29;;;;;;;;;;;11.40;61.40;;;;;;5075366;28;20362;-67
2021/12/02 05:40:55;;;;;;;;;;;11.50;61.40;;;;;;5075480;28;19909;-67
2021/12/02 05:43:20;;;;;;;;;;;11.40;61.40;;;;;;5075402;28;19955;-67
2021/12/02 05:45:46;;;;;;;;;;;11.40;61.30;;;;;;5075398;28;19915;-67
2021/12/02 05:48:12;;;;;;;;;;;11.40;61.40;;;;;;5075231;28;20393;-67
2021/12/02 05:50:37;;;;;;;;;;;11.40;61.40;;;;;;5075408;28;19908;-68
2021/12/02 05:53:03;;;;;;;;;;;11.40;61.40;;;;;;5057403;28;19909;-68
2021/12/02 05:55:28;;;;;;;;;;;11.40;61.50;;;;;;5075150;28;20364;-68
2021/12/02 05:57:54;;;;;;;;;;;11.40;61.50;;;;;;5075293;28;19954;-69
2021/12/02 06:00:20;;;;;;;;;;;11.40;61.50;;;;;;5075187;28;19908;-68
2021/12/02 06:02:45;;;;;;;;;;;11.40;61.20;;;;;;5075101;28;19909;-67
2021/12/02 06:05:17;;;;;;;;;;;11.40;61.20;;;;;;5075082;28;19908;-68
2021/12/02 06:07:43;;;;;;;;;;;11.40;61.30;;;;;;5075100;28;19909;-67
2021/12/02 06:10:09;;;;;;;;;;;11.30;61.10;;;;;;5075026;28;19998;-67
2021/12/02 06:12:35;;;;;;;;;;;11.40;61.20;;;;;;5074887;28;19958;-67
2021/12/02 06:15:01;;;;;;;;;;;11.30;61.20;;;;;;5074578;28;20019;-67
2021/12/02 06:17:26;;;;;;;;;;;11.30;61.20;;;;;;5074521;28;19962;-67
2021/12/02 06:19:52;;;;;;;;;;;11.30;61.40;;;;;;5056763;28;19995;-67
2021/12/02 06:22:17;;;;;;;;;;;11.30;61.40;;;;;;5056703;28;19908;-67
2021/12/02 06:24:46;;;;;;;;;;;11.30;61.40;;;;;;5074657;28;19962;-67
2021/12/02 06:27:12;;;;;;;;;;;11.20;61.30;;;;;;5074585;28;19909;-67
2021/12/02 06:29:37;;;;;;;;;;;11.20;61.40;;;;;;5056733;28;19915;-67
2021/12/02 06:32:04;;;;;;;;;;;11.20;61.40;;;;;;5074396;28;19908;-67
2021/12/02 06:34:30;;;;;;;;;;;11.20;61.40;;;;;;5074270;28;20262;-67
2021/12/02 06:36:56;;;;;;;;;;;11.10;61.30;;;;;;5074451;28;20007;-67
2021/12/02 06:39:22;;;;;;;;;;;11.10;61.40;;;;;;5074290;28;20372;-67
2021/12/02 06:41:47;;;;;;;;;;;11.10;61.50;;;;;;5074076;28;19913;-67
2021/12/02 06:44:13;;;;;;;;;;;11.00;62.30;;;;;;5074178;28;19904;-67
2021/12/02 06:46:39;;;;;;;;;;;11.00;61.60;;;;;;5074256;28;19908;-67
2021/12/02 06:49:05;;;;;;;;;;;10.90;61.50;;;;;;5074275;28;19908;-66
2021/12/02 06:51:31;;;;;;;;;;;10.90;61.70;;;;;;5073953;28;20227;-67
2021/12/02 06:53:56;;;;;;;;;;;10.90;61.80;;;;;;5074003;28;19913;-67
2021/12/02 06:56:22;;;;;;;;;;;10.90;61.90;;;;;;5073850;28;19954;-67
2021/12/02 06:58:48;;;;;;;;;;;10.90;62.00;;;;;;5073868;28;19913;-67
2021/12/02 07:01:14;;;;;;;;;;;10.90;62.20;;;;;;5073752;28;20390;-67
2021/12/02 07:03:39;;;;;;;;;;;10.90;62.30;;;;;;5073575;28;19909;-67
2021/12/02 07:06:05;;;;;;;;;;;10.90;62.30;;;;;;5073919;28;19913;-67
2021/12/02 07:08:31;;;;;;;;;;;10.90;62.40;;;;;;5073876;28;19913;-66
2021/12/02 07:10:59;;;;;;;;;;;10.90;62.40;;;;;;5073817;28;19908;-67
2021/12/02 07:13:24;;;;;;;;;;;10.90;62.50;;;;;;5073640;28;19953;-67
2021/12/02 07:15:52;;;;;;;;;;;10.90;62.60;;;;;;5073443;28;20015;-67
2021/12/02 07:18:18;;;;;;;;;;;10.90;62.70;;;;;;5073653;28;19908;-67
2021/12/02 07:20:47;;;;;;;;;;;10.90;62.80;;;;;;5073525;28;19915;-67
2021/12/02 07:23:14;;;;;;;;;;;10.90;62.80;;;;;;5073586;28;20390;-67
2021/12/02 07:25:40;;;;;;;;;;;10.90;62.70;;;;;;5073519;28;19915;-67
2021/12/02 07:28:10;;;;;;;;;;;10.90;62.90;;;;;;5072970;28;20366;-67
2021/12/02 07:30:35;;;;;;;;;;;11.00;63.20;;;;;;5055431;28;20294;-67
2021/12/02 07:33:03;;;;;;;;;;;11.00;63.30;;;;;;5073446;28;19909;-67
2021/12/02 07:35:28;;;;;;;;;;;11.00;63.20;;;;;;5073155;28;19920;-67
2021/12/02 07:37:56;;;;;;;;;;;11.00;63.10;;;;;;5073290;28;19908;-67
2021/12/02 07:40:22;;;;;;;;;;;11.00;63.00;;;;;;5055593;28;20316;-67
2021/12/02 07:42:49;;;;;;;;;;;11.00;62.90;;;;;;5073244;28;19931;-66
2021/12/02 07:45:15;;;;;;;;;;;11.00;62.80;;;;;;5073337;28;20454;-67
2021/12/02 07:47:41;;;;;;;;;;;11.00;62.50;;;;;;5073153;28;20000;-67
2021/12/02 07:50:08;;;;;;;;;;;11.00;62.20;;;;;;5073168;28;19905;-67
2021/12/02 07:52:35;;;;;;;;;;;11.00;61.90;;;;;;5073230;28;19908;-67
2021/12/02 07:55:06;;;;;;;;;;;11.00;61.80;;;;;;5055018;28;19956;-67
2021/12/02 07:57:37;;;;;;;;;;;11.00;61.80;;;;;;5073031;28;20285;-67
2021/12/02 08:00:03;;;;;;;;;;;11.00;61.60;;;;;;5073099;28;19915;-67
2021/12/02 08:02:33;;;;;;;;;;;11.00;61.60;;;;;;5072896;28;20419;-67
2021/12/02 08:04:58;;;;;;;;;;;11.00;61.70;;;;;;5072894;28;19916;-67
2021/12/02 08:07:24;;;;;;;;;;;11.10;61.70;;;;;;5072944;28;19908;-67
2021/12/02 08:09:50;;;;;;;;;;;11.10;61.70;;;;;;5073020;28;19948;-66
2021/12/02 08:12:15;;;;;;;;;;;11.10;61.40;;;;;;5072909;28;19908;-67
2021/12/02 08:14:41;;;;;;;;;;;11.10;61.30;;;;;;5054719;28;19922;-67
2021/12/02 08:17:06;;;;;;;;;;;11.10;61.50;;;;;;5072843;28;19921;-67
2021/12/02 08:19:32;;;;;;;;;;;11.20;61.30;;;;;;5072824;28;19909;-67
2021/12/02 08:21:58;;;;;;;;;;;11.10;61.30;;;;;;5072841;28;19931;-66
2021/12/02 08:24:25;;;;;;;;;;;11.20;61.10;;;;;;5072723;28;20003;-67
2021/12/02 08:26:52;;;;;;;;;;;11.20;61.30;;;;;;5072856;28;19908;-66
2021/12/02 08:29:17;;;;;;;;;;;11.30;61.40;;;;;;5073058;28;19958;-67
2021/12/02 08:31:43;;;;;;;;;;;11.30;61.20;;;;;;5072811;28;19916;-66
2021/12/02 08:34:09;;;;;;;;;;;11.40;61.20;;;;;;5072671;28;19912;-67
2021/12/02 08:36:43;;;;;;;;;;;11.40;61.00;;;;;;5054693;28;19947;-67
2021/12/02 08:39:15;;;;;;;;;;;11.40;61.00;;;;;;5072548;28;19909;-67
2021/12/02 08:41:44;;;;;;;;;;;11.50;61.30;;;;;;5075216;28;19981;-67
2021/12/02 08:44:10;;;;;;;;;;;11.50;61.30;;;;;;5076382;28;19998;-67
2021/12/02 08:46:36;;;;;;;;;;;11.50;61.40;;;;;;5076591;28;19908;-67
2021/12/02 08:49:03;;;;;;;;;;;11.60;61.70;;;;;;5076551;28;19908;-66
2021/12/02 08:51:29;;;;;;;;;;;11.70;61.80;;;;;;5076485;28;20262;-67
2021/12/02 08:53:54;;;;;;;;;;;11.70;61.70;;;;;;5076309;28;19912;-67
2021/12/02 08:56:20;;;;;;;;;;;11.80;61.80;;;;;;5076254;28;19908;-67
2021/12/02 08:58:46;;;;;;;;;;;11.80;61.60;;;;;;5076399;28;19909;-67
2021/12/02 09:01:12;;;;;;;;;;;11.80;61.50;;;;;;5076354;28;19954;-67
2021/12/02 09:03:38;;;;;;;;;;;11.90;61.30;;;;;;5074926;28;19912;-67
2021/12/02 09:06:08;;;;;;;;;;;11.90;61.30;;;;;;5076210;28;19925;-67
2021/12/02 09:08:34;;;;;;;;;;;12.00;61.70;;;;;;5058354;28;19908;-67
2021/12/02 09:11:00;;;;;;;;;;;12.00;61.80;;;;;;5076176;28;19915;-67
2021/12/02 09:13:26;;;;;;;;;;;12.10;61.50;;;;;;5076101;28;20410;-67
2021/12/02 09:15:55;;;;;;;;;;;12.10;61.40;;;;;;5075760;28;20338;-66
2021/12/02 09:18:21;;;;;;;;;;;12.20;61.50;;;;;;5075830;28;20464;-67
2021/12/02 09:20:46;;;;;;;;;;;12.20;61.10;;;;;;5076015;28;19940;-66
2021/12/02 09:23:13;;;;;;;;;;;12.20;60.70;;;;;;5075989;28;19916;-66
2021/12/02 09:25:39;;;;;;;;;;;12.20;60.30;;;;;;5075817;28;19982;-66
2021/12/02 09:28:05;;;;;;;;;;;12.20;60.10;;;;;;5075841;28;19959;-66
2021/12/02 09:30:32;;;;;;;;;;;12.30;60.30;;;;;;5075817;28;19954;-67
2021/12/02 09:32:57;;;;;;;;;;;12.30;60.20;;;;;;5075753;28;20690;-66
2021/12/02 09:35:23;;;;;;;;;;;12.30;60.30;;;;;;5075651;28;20007;-67
2021/12/02 09:37:49;;;;;;;;;;;12.30;60.40;;;;;;5075705;28;19928;-67
2021/12/02 09:40:16;;;;;;;;;;;12.40;61.40;;;;;;5075517;28;19944;-67
2021/12/02 09:42:42;;;;;;;;;;;12.40;60.40;;;;;;5075518;28;19909;-67
2021/12/02 09:45:08;;;;;;;;;;;12.50;60.70;;;;;;5075591;28;19904;-68
2021/12/02 09:47:37;;;;;;;;;;;12.50;60.30;;;;;;5057478;28;19908;-67
2021/12/02 09:50:07;;;;;;;;;;;12.60;60.30;;;;;;5057470;28;20433;-67
2021/12/02 09:52:39;;;;;;;;;;;12.60;60.70;;;;;;5074763;28;20308;-67
2021/12/02 09:55:11;;;;;;;;;;;12.60;59.80;;;;;;5075282;28;19913;-67
2021/12/02 09:57:41;;;;;;;;;;;12.70;59.80;;;;;;5075397;28;19908;-67
2021/12/02 10:00:09;;;;;;;;;;;12.70;59.30;;;;;;5075220;28;19913;-67
2021/12/02 10:02:41;;;;;;;;;;;12.70;59.50;;;;;;5057484;28;20269;-67
2021/12/02 10:05:10;;;;;;;;;;;12.70;59.50;;;;;;5074929;28;20312;-67
2021/12/02 10:07:51;;;;;;;;;;;12.70;59.10;;;;;;5074978;28;19908;-66
2021/12/02 10:10:28;;;;;;;;;;;12.80;58.80;;;;;;5075077;28;19908;-66
2021/12/02 10:13:14;;;;;;;;;;;12.80;58.60;;;;;;5074859;28;20289;-66
2021/12/02 10:15:42;;;;;;;;;;;12.70;58.30;;;;;;5074639;28;20031;-67
2021/12/02 10:18:08;;;;;;;;;;;12.70;58.40;;;;;;5074922;28;19909;-66
2021/12/02 10:20:38;;;;;;;;;;;12.70;58.70;;;;;;5074777;28;19916;-67
2021/12/02 10:23:19;;;;;;;;;;;12.80;58.60;;;;;;5056650;28;19916;-66
2021/12/02 10:25:58;;;;;;;;;;;12.70;58.20;;;;;;5074581;28;19919;-66
2021/12/02 10:28:24;;;;;;;;;;;12.70;57.90;;;;;;5074580;28;19916;-67
2021/12/02 10:30:51;;;;;;;;;;;12.70;57.70;;;;;;5074899;28;19932;-66
2021/12/02 10:33:35;;;;;;;;;;;12.60;57.70;;;;;;5074791;28;19909;-66
2021/12/02 10:36:02;;;;;;;;;;;12.70;57.90;;;;;;5074661;28;19936;-66
2021/12/02 10:38:35;;;;;;;;;;;12.70;58.00;;;;;;5074341;28;20346;-67
2021/12/02 10:41:03;;;;;;;;;;;12.70;58.20;;;;;;5074298;28;19909;-66
2021/12/02 10:43:29;;;;;;;;;;;12.80;58.10;;;;;;5074135;28;20259;-66
2021/12/02 10:46:14;;;;;;;;;;;12.80;57.90;;;;;;5074166;28;19908;-66
2021/12/02 10:48:49;;;;;;;;;;;12.70;57.40;;;;;;5074114;28;19948;-66
2021/12/02 10:51:33;;;;;;;;;;;12.70;57.10;;;;;;5073812;28;19912;-66
2021/12/02 10:53:59;;;;;;;;;;;12.60;56.80;;;;;;5073874;28;19913;-66
2021/12/02 10:56:35;;;;;;;;;;;12.60;57.10;;;;;;5073952;28;19915;-66
2021/12/02 10:59:19;;;;;;;;;;;12.60;57.20;;;;;;5073999;28;19908;-66
2021/12/02 11:01:45;;;;;;;;;;;12.50;57.10;;;;;;5073967;28;19908;-66
2021/12/02 11:04:13;;;;;;;;;;;12.50;57.40;;;;;;5072952;28;19931;-66
2021/12/02 11:06:42;;;;;;;;;;;12.50;57.30;;;;;;5073711;28;19991;-66
2021/12/02 11:09:28;;;;;;;;;;;12.50;57.00;;;;;;5073730;28;19908;-66
2021/12/02 11:12:11;;;;;;;;;;;12.50;57.10;;;;;;5073294;28;19908;-66
2021/12/02 11:14:39;;;;;;;;;;;12.40;57.00;;;;;;5073403;28;19912;-66
2021/12/02 11:17:14;;;;;;;;;;;12.40;57.00;;;;;;5073825;28;20443;-66
2021/12/02 11:19:48;;;;;;;;;;;12.40;57.00;;;;;;5073577;28;19912;-66
2021/12/02 11:22:15;;;;;;;;;;;12.50;57.30;;;;;;5073593;28;20362;-66
2021/12/02 11:24:41;;;;;;;;;;;12.40;57.60;;;;;;5073500;28;19908;-66
2021/12/02 11:27:13;;;;;;;;;;;12.40;56.90;;;;;;5073507;28;20004;-66
2021/12/02 11:29:49;;;;;;;;;;;12.30;56.70;;;;;;5073535;28;19912;-66
2021/12/02 11:32:41;;;;;;;;;;;12.30;57.10;;;;;;5073308;28;19963;-66
2021/12/02 11:35:09;;;;;;;;;;;12.30;57.30;;;;;;5071072;28;19920;-66
2021/12/02 11:37:35;;;;;;;;;;;12.30;57.30;;;;;;5073353;28;19913;-66
2021/12/02 11:40:04;;;;;;;;;;;12.30;57.30;;;;;;5073577;28;19916;-66
2021/12/02 11:42:29;;;;;;;;;;;12.30;57.40;;;;;;5073530;28;19908;-66
2021/12/02 11:44:56;;;;;;;;;;;12.30;57.50;;;;;;5073334;28;19999;-66
2021/12/02 11:47:22;;;;;;;;;;;12.40;57.60;;;;;;5055290;28;20272;-66
2021/12/02 11:49:48;;;;;;;;;;;12.40;57.30;;;;;;5073100;28;19908;-66
2021/12/02 11:52:14;;;;;;;;;;;12.40;57.10;;;;;;5055168;28;19915;-66
2021/12/02 11:54:40;;;;;;;;;;;12.40;57.30;;;;;;5073047;28;20435;-67
2021/12/02 11:57:06;;;;;;;;;;;12.40;57.60;;;;;;5073155;28;19913;-67
2021/12/02 11:59:33;;;;;;;;;;;12.40;57.20;;;;;;5073342;28;19909;-65
2021/12/02 12:01:59;;;;;;;;;;;12.50;57.10;;;;;;5072996;28;19916;-65
2021/12/02 12:04:25;;;;;;;;;;;12.50;57.10;;;;;;5072983;28;20278;-65
2021/12/02 12:06:54;;;;;;;;;;;12.50;57.30;;;;;;5072886;28;19909;-65
2021/12/02 12:09:25;;;;;;;;;;;12.40;57.00;;;;;;5072839;28;19931;-64
2021/12/02 12:11:52;;;;;;;;;;;12.40;57.10;;;;;;5055016;28;19908;-65
2021/12/02 12:14:31;;;;;;;;;;;12.40;57.30;;;;;;5072553;28;20007;-64
2021/12/02 12:17:08;;;;;;;;;;;12.40;57.50;;;;;;5072834;28;19927;-64
2021/12/02 12:19:54;;;;;;;;;;;12.40;57.50;;;;;;5072954;28;19909;-66
2021/12/02 12:22:30;;;;;;;;;;;12.40;57.40;;;;;;5072415;28;20285;-66
2021/12/02 12:25:00;;;;;;;;;;;12.40;57.40;;;;;;5054811;28;19916;-67
2021/12/02 12:27:25;;;;;;;;;;;12.40;57.30;;;;;;5073139;28;19909;-66
2021/12/02 12:30:04;;;;;;;;;;;12.30;57.10;;;;;;5072862;28;19915;-66
2021/12/02 12:32:49;;;;;;;;;;;12.30;57.00;;;;;;5072557;28;19958;-66
2021/12/02 12:35:47;;;;;;;;;;;12.30;57.00;;;;;;5072461;28;19920;-66
2021/12/02 12:38:27;;;;;;;;;;;12.20;57.20;;;;;;5071687;28;20005;-66
2021/12/02 12:40:54;;;;;;;;;;;12.30;57.30;;;;;;5072599;28;19905;-66
2021/12/02 12:43:21;;;;;;;;;;;12.20;57.50;;;;;;5072544;28;19909;-66
2021/12/02 12:45:47;;;;;;;;;;;12.30;57.50;;;;;;5072543;28;19940;-66
2021/12/02 12:48:30;;;;;;;;;;;12.20;57.30;;;;;;5072271;28;19948;-67
2021/12/02 12:51:12;;;;;;;;;;;12.20;57.00;;;;;;5054617;28;19970;-66
2021/12/02 12:53:39;;;;;;;;;;;12.20;57.10;;;;;;5054589;28;19955;-66
2021/12/02 12:56:06;;;;;;;;;;;12.20;57.40;;;;;;5054333;28;19962;-66
2021/12/02 12:58:34;;;;;;;;;;;12.20;57.40;;;;;;5072400;28;19915;-66
2021/12/02 13:01:01;;;;;;;;;;;12.30;57.30;;;;;;5072565;28;19958;-66
2021/12/02 13:03:32;;;;;;;;;;;12.30;58.10;;;;;;5072173;28;19955;-66
2021/12/02 13:06:07;;;;;;;;;;;12.30;57.50;;;;;;5072397;28;20281;-66
2021/12/02 13:08:37;;;;;;;;;;;12.30;57.60;;;;;;5072244;28;19908;-67
2021/12/02 13:11:11;;;;;;;;;;;12.30;57.40;;;;;;5072292;28;19916;-66
2021/12/02 13:13:37;;;;;;;;;;;12.20;57.50;;;;;;5054111;28;19913;-66
2021/12/02 13:16:15;;;;;;;;;;;12.30;57.50;;;;;;5071933;28;20390;-66
2021/12/02 13:18:43;;;;;;;;;;;12.20;57.50;;;;;;5072146;28;19908;-66
2021/12/02 13:21:20;;;;;;;;;;;12.20;57.60;;;;;;5072303;28;19968;-66
2021/12/02 13:24:05;;;;;;;;;;;12.20;57.60;;;;;;5072276;28;19908;-66
2021/12/02 13:26:33;;;;;;;;;;;12.20;57.60;;;;;;5072775;28;20311;-66
2021/12/02 13:29:11;;;;;;;;;;;12.20;57.70;;;;;;5075727;28;19909;-66
2021/12/02 13:31:38;;;;;;;;;;;12.20;58.00;;;;;;5075732;28;19908;-66
2021/12/02 13:34:05;;;;;;;;;;;12.20;58.50;;;;;;5075561;28;19955;-66
2021/12/02 13:36:47;;;;;;;;;;;12.20;58.20;;;;;;5057693;28;20294;-66
2021/12/02 13:39:16;;;;;;;;;;;12.20;58.30;;;;;;5057583;28;20365;-66
2021/12/02 13:41:42;;;;;;;;;;;12.20;58.40;;;;;;5075487;28;19959;-66
2021/12/02 13:44:09;;;;;;;;;;;12.20;58.50;;;;;;5075535;28;19908;-66
2021/12/02 13:46:37;;;;;;;;;;;12.10;58.50;;;;;;5075382;28;19909;-66
2021/12/02 13:49:05;;;;;;;;;;;12.20;58.60;;;;;;5075413;28;19915;-66
2021/12/02 13:54:29;;;;;;;;;;;12.20;58.60;;;;;;5075554;28;20530;-66
2021/12/02 13:56:57;;;;;;;;;;;12.10;58.60;;;;;;5075350;28;19908;-66
2021/12/02 13:59:26;;;;;;;;;;;12.10;58.60;;;;;;5075273;28;19915;-66
2021/12/02 14:01:53;;;;;;;;;;;12.10;58.60;;;;;;5057003;28;19959;-66
2021/12/02 14:04:19;;;;;;;;;;;12.10;58.60;;;;;;5075079;28;19908;-66
2021/12/02 14:06:44;;;;;;;;;;;12.00;58.40;;;;;;5074984;28;19916;-66
2021/12/02 14:09:13;;;;;;;;;;;12.00;58.50;;;;;;5075164;28;20281;-66
2021/12/02 14:11:39;;;;;;;;;;;12.00;58.50;;;;;;5075015;28;19916;-66
2021/12/02 14:14:05;;;;;;;;;;;11.90;58.50;;;;;;5074894;28;20285;-66
2021/12/02 14:16:30;;;;;;;;;;;11.90;58.60;;;;;;5074617;28;20007;-66
2021/12/02 14:19:07;;;;;;;;;;;11.90;58.70;;;;;;5056943;28;20388;-66
2021/12/02 14:21:33;;;;;;;;;;;11.90;58.80;;;;;;5075170;28;20353;-66
2021/12/02 14:23:58;;;;;;;;;;;11.90;58.90;;;;;;5074871;28;19912;-66
2021/12/02 14:26:29;;;;;;;;;;;11.90;59.00;;;;;;5074670;28;20393;-66
2021/12/02 14:28:55;;;;;;;;;;;11.90;59.10;;;;;;5074616;28;19966;-66
2021/12/02 14:31:23;;;;;;;;;;;11.90;59.20;;;;;;5074630;28;19909;-66
2021/12/02 14:33:49;;;;;;;;;;;11.90;59.30;;;;;;5074448;28;20428;-66
2021/12/02 14:36:16;;;;;;;;;;;11.90;59.30;;;;;;5074527;28;19908;-66
2021/12/02 14:38:46;;;;;;;;;;;11.90;59.20;;;;;;5074418;28;19915;-66